To NAV CANADA Home Page Login to a new session Search on AWWS site Feedback and Comments Disclaimer Vers la page française équivalente Tips FAQ What's new on the site To the Forecasts and Observations / NOTAM section To "File a Flight Plan" website Publications and other links Update of the User's profile FIC Telephone Numbers My Weather Data Folder Route Weather Data Regional Weather Data Local Weather Data To the Forecasts and Observations / NOTAM section
Request Generated 03/28/2017 at 02:18:54 UTC . Weather information available at that time is displayed.

METAR/TAF

MEDICINE HAT/AB    (show WxCam)

METAR CYXH 280200Z 22006KT 30SM BKN075 11/M01 A2987 RMK AC7 SLP131
DENSITY ALT 2400FT=
METAR CYXH 280100Z VRB02KT 30SM OVC080 12/M02 A2985 RMK AC8 SLP124
DENSITY ALT 2600FT=
METAR CYXH 280000Z 23003KT 30SM BKN080 14/M03 A2984 RMK AC7 SLP117
DENSITY ALT 2800FT=

TAF CYXH 272339Z 2800/2812 VRB03KT P6SM BKN070 BKN270 TEMPO 2800/2806
P6SM -SHRA
FM280600 VRB03KT P6SM SCT080 SCT270
BECMG 2808/2810 26010KT
RMK NXT FCST BY 280600Z=
Your time UTC time
Weather data provided by Environment Canada and NAV CANADA